Time;durP1;ratioP1;P1;durP2;ratioP2;P2;SDS_P1;SDS_P2;PMS_P1;PMS_P2;Temp;Humidity;BMP_temperature;BMP_pressure;BME280_temperature;BME280_humidity;BME280_pressure;Samples;Min_cycle;Max_cycle;Signal;HPM_P1;HPM_P2
2022/10/08 00:00:45;;;;;;;23.70;9.27;;;10.20;99.90;;;;;;4994322;28;20392;-72
2022/10/08 00:03:12;;;;;;;21.83;8.88;;;10.20;99.90;;;;;;4994322;28;20498;-72
2022/10/08 00:05:38;;;;;;;20.48;8.63;;;10.20;99.90;;;;;;4994435;28;20398;-72
2022/10/08 00:08:03;;;;;;;22.87;10.10;;;10.20;99.90;;;;;;4993511;28;20398;-71
2022/10/08 00:10:31;;;;;;;22.33;9.30;;;10.20;99.90;;;;;;4994540;28;20397;-73
2022/10/08 00:13:00;;;;;;;27.73;8.65;;;10.20;99.90;;;;;;4995036;28;20397;-72
2022/10/08 00:15:27;;;;;;;19.70;9.10;;;10.30;99.90;;;;;;4995138;28;20387;-72
2022/10/08 00:17:52;;;;;;;26.73;8.50;;;10.30;99.90;;;;;;4994967;28;20947;-72
2022/10/08 00:20:18;;;;;;;27.75;9.13;;;10.20;99.90;;;;;;4994122;28;20486;-72
2022/10/08 00:22:44;;;;;;;21.58;8.90;;;10.10;99.90;;;;;;4993735;28;20448;-72
2022/10/08 00:25:09;;;;;;;20.92;9.10;;;10.20;99.90;;;;;;4993994;28;20466;-72
2022/10/08 00:27:35;;;;;;;21.80;8.82;;;10.10;99.90;;;;;;4993878;28;20875;-72
2022/10/08 00:30:03;;;;;;;21.80;8.15;;;10.10;99.90;;;;;;4993501;28;20882;-72
2022/10/08 00:32:28;;;;;;;23.95;8.95;;;10.10;99.90;;;;;;4993490;28;20402;-71
2022/10/08 00:34:54;;;;;;;22.23;8.63;;;10.20;99.90;;;;;;4993465;28;20393;-72
2022/10/08 00:37:20;;;;;;;21.25;9.15;;;10.20;99.90;;;;;;4994022;28;20410;-72
2022/10/08 00:39:45;;;;;;;24.70;9.65;;;10.30;98.60;;;;;;4993512;28;20387;-72
2022/10/08 00:42:12;;;;;;;26.17;8.85;;;10.20;99.90;;;;;;4993441;28;20382;-71
2022/10/08 00:44:49;;;;;;;21.20;8.00;;;10.10;99.90;;;;;;4993407;28;20462;-72
2022/10/08 00:47:31;;;;;;;20.20;8.73;;;10.10;99.90;;;;;;4993420;28;20858;-72
2022/10/08 00:50:01;;;;;;;21.25;8.18;;;10.10;99.90;;;;;;4992975;28;20464;-73
2022/10/08 00:52:33;;;;;;;24.45;9.40;;;10.00;99.90;;;;;;4992989;28;20386;-72
2022/10/08 00:55:00;;;;;;;19.10;8.60;;;9.90;99.90;;;;;;4992978;28;20414;-72
2022/10/08 00:57:27;;;;;;;21.20;7.50;;;9.90;99.90;;;;;;4993675;28;20434;-72
2022/10/08 00:59:53;;;;;;;20.67;8.80;;;9.90;99.90;;;;;;4992628;28;20426;-72
2022/10/08 01:02:19;;;;;;;22.20;8.10;;;9.80;99.90;;;;;;4992857;28;20425;-72
2022/10/08 01:04:46;;;;;;;25.00;8.07;;;9.80;99.90;;;;;;4992824;28;20402;-72
2022/10/08 01:07:54;;;;;;;20.23;7.95;;;9.90;99.90;;;;;;4991799;28;20448;-71
2022/10/08 01:10:43;;;;;;;20.47;8.87;;;9.90;99.90;;;;;;4992081;28;20493;-72
2022/10/08 01:14:01;;;;;;;22.17;7.85;;;9.90;99.90;;;;;;4992610;28;20916;-72
2022/10/08 01:16:53;;;;;;;23.45;8.60;;;9.90;99.90;;;;;;4992195;28;20419;-72
2022/10/08 01:19:19;;;;;;;18.77;8.15;;;9.90;99.90;;;;;;4992593;28;20406;-71
2022/10/08 01:22:13;;;;;;;24.23;8.20;;;9.80;99.90;;;;;;4992316;28;20382;-71
2022/10/08 01:27:53;;;;;;;18.95;6.70;;;9.80;99.90;;;;;;5003707;28;20748;-72
2022/10/08 01:30:19;;;;;;;23.48;8.82;;;9.80;99.90;;;;;;4994537;28;20600;-72
2022/10/08 01:32:56;;;;;;;22.80;7.57;;;9.80;99.90;;;;;;4992457;28;20402;-72
2022/10/08 01:35:29;;;;;;;16.50;7.35;;;9.90;99.90;;;;;;4992364;28;20751;-72
2022/10/08 01:37:58;;;;;;;23.45;8.73;;;9.90;99.90;;;;;;4991079;28;20399;-73
2022/10/08 01:40:29;;;;;;;21.35;7.40;;;9.90;99.90;;;;;;5009081;28;20389;-72
2022/10/08 01:42:58;;;;;;;26.15;7.20;;;9.90;99.90;;;;;;5012089;28;20783;-72
2022/10/08 01:45:34;;;;;;;20.30;7.20;;;9.80;99.90;;;;;;5012154;28;20381;-71
2022/10/08 01:48:04;;;;;;;20.10;7.93;;;9.80;99.90;;;;;;5010549;28;20392;-72
2022/10/08 01:50:52;;;;;;;26.52;7.75;;;9.80;99.90;;;;;;5011450;28;21025;-72
2022/10/08 01:53:20;;;;;;;19.42;7.30;;;9.90;99.90;;;;;;5011844;28;20393;-71
2022/10/08 01:55:50;;;;;;;17.08;7.00;;;9.90;99.90;;;;;;5011708;28;20408;-73
2022/10/08 01:58:26;;;;;;;16.92;7.15;;;9.90;99.90;;;;;;5011633;28;20389;-73
2022/10/08 02:00:54;;;;;;;18.67;8.07;;;9.90;99.90;;;;;;5011539;28;20720;-71
2022/10/08 02:03:20;;;;;;;20.17;7.40;;;9.90;99.90;;;;;;5012096;28;20424;-72
2022/10/08 02:05:50;;;;;;;15.52;6.90;;;10.00;99.90;;;;;;5011837;28;20443;-73
2022/10/08 02:08:16;;;;;;;18.35;8.15;;;9.90;99.90;;;;;;5011949;28;20912;-71
2022/10/08 02:10:42;;;;;;;16.87;7.20;;;9.90;99.90;;;;;;5010330;28;20392;-71
2022/10/08 02:13:08;;;;;;;17.90;6.97;;;9.90;99.90;;;;;;5011633;28;20408;-72
2022/10/08 02:15:42;;;;;;;18.65;7.28;;;9.90;99.90;;;;;;5013138;28;20412;-73
2022/10/08 02:18:31;;;;;;;14.23;7.28;;;10.00;99.90;;;;;;5011629;28;20728;-72
2022/10/08 02:21:00;;;;;;;19.98;7.15;;;10.00;99.90;;;;;;5010880;28;20396;-73
2022/10/08 02:23:44;;;;;;;18.50;7.60;;;10.10;99.90;;;;;;5011339;28;20408;-71
2022/10/08 02:26:18;;;;;;;21.80;6.72;;;10.20;99.90;;;;;;5011621;28;20385;-72
2022/10/08 02:28:59;;;;;;;12.32;6.20;;;10.30;97.90;;;;;;5010035;28;20424;-73
2022/10/08 02:31:40;;;;;;;18.40;7.00;;;10.30;97.70;;;;;;5012504;28;20754;-72
2022/10/08 02:34:07;;;;;;;23.73;8.60;;;10.40;96.40;;;;;;5011662;28;20391;-73
2022/10/08 02:36:40;;;;;;;17.90;6.57;;;10.50;94.60;;;;;;5012223;28;20404;-73
2022/10/08 02:39:07;;;;;;;18.58;6.72;;;10.50;93.80;;;;;;5011234;28;20384;-73
2022/10/08 02:42:03;;;;;;;17.55;7.15;;;10.60;92.20;;;;;;5011393;28;20476;-72
2022/10/08 02:44:38;;;;;;;16.65;7.38;;;10.70;90.70;;;;;;5020797;28;20898;-73
2022/10/08 02:47:10;;;;;;;20.00;7.63;;;10.60;91.40;;;;;;5017387;28;20392;-71
2022/10/08 02:49:44;;;;;;;17.92;7.40;;;10.60;92.60;;;;;;5017923;28;20411;-73
2022/10/08 02:52:10;;;;;;;17.80;6.65;;;10.70;92.00;;;;;;5017516;28;20384;-72
2022/10/08 02:54:39;;;;;;;18.15;8.18;;;10.70;91.60;;;;;;5016577;28;20467;-71
2022/10/08 02:57:14;;;;;;;21.58;6.88;;;10.80;90.00;;;;;;5016261;28;20405;-72
2022/10/08 02:59:41;;;;;;;14.32;6.68;;;10.90;87.60;;;;;;5015687;28;20408;-71
2022/10/08 03:02:08;;;;;;;17.90;7.30;;;11.00;86.10;;;;;;5014775;28;20468;-72
2022/10/08 03:04:49;;;;;;;18.90;6.47;;;11.00;84.60;;;;;;5013210;28;20429;-72
2022/10/08 03:07:15;;;;;;;19.25;6.90;;;11.10;82.90;;;;;;5014746;28;20439;-73
2022/10/08 03:09:46;;;;;;;16.08;6.82;;;11.30;81.10;;;;;;5014376;28;20392;-71
2022/10/08 03:12:12;;;;;;;17.57;6.40;;;11.30;80.50;;;;;;5014462;28;20498;-71
2022/10/08 03:14:40;;;;;;;16.90;7.10;;;11.30;79.90;;;;;;5014405;28;20384;-71
2022/10/08 03:17:09;;;;;;;19.33;6.53;;;11.30;82.00;;;;;;5014378;28;20916;-71
2022/10/08 03:19:35;;;;;;;19.10;7.53;;;11.40;83.00;;;;;;5014524;28;20814;-70
2022/10/08 03:22:01;;;;;;;23.63;8.23;;;11.30;83.70;;;;;;5015133;28;20484;-72
2022/10/08 03:24:27;;;;;;;14.85;6.30;;;11.30;86.60;;;;;;5015116;28;20385;-72
2022/10/08 03:26:53;;;;;;;21.53;8.27;;;11.20;88.00;;;;;;5015247;28;20392;-72
2022/10/08 03:29:19;;;;;;;17.40;7.47;;;11.20;90.30;;;;;;5014672;28;20442;-72
2022/10/08 03:31:47;;;;;;;16.73;6.80;;;11.30;91.60;;;;;;5014164;28;20428;-72
2022/10/08 03:34:12;;;;;;;16.48;6.45;;;11.40;89.50;;;;;;5014354;28;20393;-71
2022/10/08 03:36:38;;;;;;;18.10;6.50;;;11.50;87.30;;;;;;5014813;28;20408;-72
2022/10/08 03:39:03;;;;;;;20.97;6.20;;;11.60;88.80;;;;;;5021483;28;20391;-72
2022/10/08 03:41:30;;;;;;;19.30;7.10;;;11.70;86.30;;;;;;5027090;28;20424;-72
2022/10/08 03:43:57;;;;;;;14.75;5.70;;;11.60;87.20;;;;;;5022668;28;20429;-71
2022/10/08 03:46:23;;;;;;;22.35;6.50;;;11.50;89.20;;;;;;5035832;28;20392;-71
2022/10/08 03:48:49;;;;;;;17.33;6.65;;;11.60;89.90;;;;;;5020128;28;20462;-72
2022/10/08 03:51:15;;;;;;;14.98;7.03;;;11.60;90.50;;;;;;5034661;28;20408;-72
2022/10/08 03:53:42;;;;;;;11.35;5.50;;;11.60;90.80;;;;;;5015312;28;20392;-72
2022/10/08 03:56:16;;;;;;;19.73;6.50;;;11.80;88.40;;;;;;5013406;28;20405;-72
2022/10/08 03:58:42;;;;;;;18.83;6.40;;;12.00;86.90;;;;;;5013363;28;20384;-71
2022/10/08 04:01:14;;;;;;;14.93;7.10;;;11.90;89.50;;;;;;5013908;28;20443;-72
2022/10/08 04:03:40;;;;;;;16.75;6.30;;;11.80;92.80;;;;;;5013705;28;20452;-72
2022/10/08 04:06:06;;;;;;;21.88;6.28;;;11.80;93.60;;;;;;5013706;28;20803;-72
2022/10/08 04:08:33;;;;;;;14.52;5.80;;;11.80;93.80;;;;;;5013507;28;20392;-73
2022/10/08 04:11:02;;;;;;;21.52;6.15;;;11.80;96.00;;;;;;5013765;28;20388;-71
2022/10/08 04:13:28;;;;;;;19.27;6.82;;;11.80;98.70;;;;;;5014150;28;20388;-71
2022/10/08 04:16:03;;;;;;;18.83;6.43;;;12.00;98.60;;;;;;5013880;28;20739;-72
2022/10/08 04:18:29;;;;;;;15.85;5.30;;;12.00;99.80;;;;;;5013468;28;20385;-70
2022/10/08 04:21:06;;;;;;;20.85;7.00;;;12.00;99.90;;;;;;5013144;28;20794;-71
2022/10/08 04:23:34;;;;;;;14.65;5.20;;;12.20;99.40;;;;;;5013362;28;20392;-70
2022/10/08 04:26:00;;;;;;;16.07;5.50;;;12.20;99.60;;;;;;5013254;28;20827;-72
2022/10/08 04:28:26;;;;;;;17.33;5.67;;;12.30;99.90;;;;;;5013292;28;20389;-71
2022/10/08 04:30:58;;;;;;;13.00;5.07;;;12.40;99.90;;;;;;5013453;28;20385;-72
2022/10/08 04:33:25;;;;;;;19.63;5.57;;;12.40;99.90;;;;;;5012968;28;20396;-72
2022/10/08 04:35:50;;;;;;;19.17;5.30;;;12.40;99.90;;;;;;5012908;28;20405;-72
2022/10/08 04:38:16;;;;;;;15.52;5.40;;;12.50;99.90;;;;;;5012978;28;20396;-72
2022/10/08 04:40:41;;;;;;;16.63;5.30;;;12.40;99.90;;;;;;5013286;28;20385;-72
2022/10/08 04:43:07;;;;;;;20.53;5.30;;;12.50;99.90;;;;;;5012835;28;20511;-72
2022/10/08 04:45:32;;;;;;;20.20;6.07;;;12.50;99.90;;;;;;5012979;28;20916;-72
2022/10/08 04:47:58;;;;;;;18.20;5.88;;;12.50;99.90;;;;;;5013145;28;20808;-72
2022/10/08 04:50:23;;;;;;;17.33;5.30;;;12.50;99.90;;;;;;5012851;28;20451;-72
2022/10/08 04:52:49;;;;;;;16.83;5.90;;;12.40;99.90;;;;;;5012769;28;20408;-72
2022/10/08 04:55:15;;;;;;;15.93;6.00;;;12.40;99.90;;;;;;5013021;28;20388;-72
2022/10/08 04:57:40;;;;;;;12.10;5.70;;;12.40;99.90;;;;;;5012771;28;20412;-72
2022/10/08 05:00:06;;;;;;;19.63;5.90;;;12.50;99.90;;;;;;5012812;28;20377;-72
2022/10/08 05:02:33;;;;;;;17.92;6.18;;;12.50;99.90;;;;;;5012502;28;20739;-72
2022/10/08 05:04:59;;;;;;;16.42;6.22;;;12.50;99.90;;;;;;5012843;28;20388;-71
2022/10/08 05:07:25;;;;;;;20.83;7.75;;;12.40;99.90;;;;;;5010830;28;20746;-72
2022/10/08 05:09:50;;;;;;;15.50;6.60;;;12.30;99.90;;;;;;5012693;28;20793;-72
2022/10/08 05:12:16;;;;;;;13.98;7.03;;;12.30;99.90;;;;;;5012391;28;20789;-72
2022/10/08 05:14:41;;;;;;;20.00;7.27;;;12.30;99.90;;;;;;5012668;28;20392;-72
2022/10/08 05:17:07;;;;;;;18.40;7.67;;;12.40;99.90;;;;;;5012297;28;20408;-73
2022/10/08 05:19:32;;;;;;;21.90;7.87;;;12.40;99.90;;;;;;5012369;28;20400;-72
2022/10/08 05:21:58;;;;;;;19.15;8.70;;;12.40;99.90;;;;;;5012866;28;20384;-72
2022/10/08 05:24:24;;;;;;;25.70;9.23;;;12.40;99.90;;;;;;5012279;28;20389;-72
2022/10/08 05:26:51;;;;;;;19.25;8.80;;;12.30;99.90;;;;;;5012176;28;20422;-75
2022/10/08 05:29:17;;;;;;;18.00;9.13;;;12.30;99.90;;;;;;5020065;28;20940;-73
2022/10/08 05:31:43;;;;;;;18.10;8.50;;;12.30;99.90;;;;;;5019170;28;20813;-73
2022/10/08 05:34:13;;;;;;;17.15;8.40;;;12.30;99.90;;;;;;5012712;28;20438;-72
2022/10/08 05:36:39;;;;;;;21.70;8.80;;;12.40;99.90;;;;;;5012401;28;20484;-72
2022/10/08 05:39:05;;;;;;;17.13;8.73;;;12.40;99.90;;;;;;5012200;28;20727;-72
2022/10/08 05:41:33;;;;;;;23.02;8.20;;;12.40;99.90;;;;;;5012136;28;20547;-73
2022/10/08 05:44:02;;;;;;;21.73;10.15;;;12.40;99.90;;;;;;5012152;28;20727;-72
2022/10/08 05:46:30;;;;;;;16.15;7.80;;;12.40;99.90;;;;;;5012250;28;20822;-72
2022/10/08 05:48:58;;;;;;;16.35;8.25;;;12.60;99.90;;;;;;5011915;28;20396;-71
2022/10/08 05:51:24;;;;;;;21.58;8.30;;;12.60;99.90;;;;;;5012301;28;20757;-71
2022/10/08 05:53:51;;;;;;;17.33;9.00;;;12.60;99.90;;;;;;5012131;28;20475;-71
2022/10/08 05:56:20;;;;;;;16.65;8.93;;;12.60;99.90;;;;;;5012169;28;20412;-72
2022/10/08 05:58:47;;;;;;;17.00;8.50;;;12.50;99.90;;;;;;5012928;28;20890;-72
2022/10/08 06:01:24;;;;;;;19.83;9.20;;;12.50;99.90;;;;;;5012471;28;20515;-73
2022/10/08 06:03:55;;;;;;;12.50;7.68;;;12.50;99.90;;;;;;5011935;28;20385;-73
2022/10/08 06:06:22;;;;;;;17.67;8.80;;;12.70;99.90;;;;;;5011341;28;20385;-72
2022/10/08 06:08:51;;;;;;;19.33;7.13;;;12.70;99.90;;;;;;5011499;28;20415;-72
2022/10/08 06:11:17;;;;;;;16.08;7.22;;;12.80;99.90;;;;;;5011468;28;20436;-71
2022/10/08 06:13:42;;;;;;;18.30;7.00;;;12.80;99.90;;;;;;5011552;28;20459;-72
2022/10/08 06:16:10;;;;;;;16.60;7.60;;;12.80;99.90;;;;;;5011779;28;20810;-72
2022/10/08 06:18:39;;;;;;;15.02;7.35;;;12.80;99.90;;;;;;5012710;28;20404;-72
2022/10/08 06:21:13;;;;;;;16.23;7.43;;;12.70;99.90;;;;;;5015173;28;20408;-72
2022/10/08 06:23:49;;;;;;;16.33;6.90;;;12.60;99.90;;;;;;5013073;28;20391;-71
2022/10/08 06:26:16;;;;;;;14.40;7.40;;;12.40;99.90;;;;;;5011905;28;20447;-71
2022/10/08 06:28:43;;;;;;;18.17;7.40;;;12.50;99.90;;;;;;5011065;28;20396;-72
2022/10/08 06:31:09;;;;;;;15.82;7.50;;;12.50;99.90;;;;;;5011464;28;20393;-71
2022/10/08 06:33:35;;;;;;;12.50;7.03;;;12.60;99.90;;;;;;5011645;28;20880;-72
2022/10/08 06:36:12;;;;;;;14.43;7.33;;;12.70;99.90;;;;;;5011118;28;20412;-72
2022/10/08 06:38:38;;;;;;;14.65;7.30;;;12.80;99.90;;;;;;5009974;28;20385;-71
2022/10/08 06:41:04;;;;;;;19.77;8.63;;;12.90;99.90;;;;;;5011497;28;20385;-72
2022/10/08 06:43:29;;;;;;;15.60;8.50;;;12.90;99.90;;;;;;5011501;28;20385;-73
2022/10/08 06:45:58;;;;;;;14.10;9.00;;;12.90;99.90;;;;;;5011713;28;20980;-72
2022/10/08 06:48:25;;;;;;;17.55;9.80;;;12.90;99.90;;;;;;5011678;28;20766;-75
2022/10/08 06:51:11;;;;;;;18.17;10.70;;;12.90;99.90;;;;;;5011420;28;20385;-72
2022/10/08 06:53:38;;;;;;;19.90;11.93;;;12.90;99.90;;;;;;5011420;28;20873;-73
2022/10/08 06:56:06;;;;;;;23.67;13.00;;;12.90;99.90;;;;;;5011153;28;20452;-71
2022/10/08 06:58:34;;;;;;;20.65;12.55;;;12.90;99.90;;;;;;5011417;28;20446;-73
2022/10/08 07:01:20;;;;;;;27.20;13.00;;;12.90;99.90;;;;;;5011409;28;20847;-72
2022/10/08 07:03:58;;;;;;;23.50;12.83;;;12.90;99.90;;;;;;5011991;28;20393;-72
2022/10/08 07:06:24;;;;;;;23.20;13.50;;;13.10;99.90;;;;;;5017076;28;20468;-73
2022/10/08 07:08:52;;;;;;;24.55;14.07;;;13.30;99.90;;;;;;5017556;28;20439;-72
2022/10/08 07:11:18;;;;;;;29.77;14.70;;;13.30;99.90;;;;;;5012234;28;20431;-72
2022/10/08 07:13:44;;;;;;;24.50;14.73;;;13.30;99.90;;;;;;5011849;28;20443;-72
2022/10/08 07:16:13;;;;;;;22.40;14.73;;;13.30;99.90;;;;;;5011606;28;20409;-72
2022/10/08 07:18:39;;;;;;;26.10;14.60;;;13.30;99.90;;;;;;5011340;28;20385;-71
2022/10/08 07:21:06;;;;;;;34.05;16.35;;;13.20;99.90;;;;;;5010919;28;20377;-73
2022/10/08 07:23:33;;;;;;;31.90;17.30;;;13.30;99.90;;;;;;5010938;28;20396;-71
2022/10/08 07:26:09;;;;;;;32.63;17.65;;;13.30;99.90;;;;;;5011122;28;20458;-72
2022/10/08 07:28:37;;;;;;;36.17;19.02;;;13.40;99.90;;;;;;5011021;28;20436;-73
2022/10/08 07:31:04;;;;;;;30.55;17.73;;;13.40;99.90;;;;;;5014272;28;20386;-72
2022/10/08 07:33:31;;;;;;;27.70;17.67;;;13.50;98.80;;;;;;5014619;28;20416;-71
2022/10/08 07:36:05;;;;;;;31.60;18.13;;;13.60;94.80;;;;;;5029751;28;20434;-72
2022/10/08 07:38:30;;;;;;;34.40;19.95;;;13.70;92.70;;;;;;5014816;28;20384;-73
2022/10/08 07:40:56;;;;;;;33.28;20.50;;;13.70;92.50;;;;;;5014546;28;20951;-72
2022/10/08 07:43:21;;;;;;;31.43;18.57;;;13.60;91.50;;;;;;5014729;28;20495;-72
2022/10/08 07:45:48;;;;;;;31.97;18.90;;;13.60;92.90;;;;;;5014759;28;20746;-74
2022/10/08 07:48:15;;;;;;;32.25;19.35;;;13.60;93.10;;;;;;5015297;28;20395;-73
2022/10/08 07:50:40;;;;;;;34.20;20.00;;;13.70;93.20;;;;;;5014587;28;20397;-73
2022/10/08 07:53:06;;;;;;;35.50;19.97;;;13.80;91.10;;;;;;5014299;28;20455;-72
2022/10/08 07:55:35;;;;;;;37.03;20.15;;;14.10;87.90;;;;;;5014484;28;20388;-73
2022/10/08 07:58:00;;;;;;;36.67;19.75;;;14.10;83.50;;;;;;5015138;28;20472;-73
2022/10/08 08:00:26;;;;;;;30.90;18.92;;;14.20;82.20;;;;;;5015057;28;20404;-73
2022/10/08 08:02:52;;;;;;;31.67;19.17;;;14.30;79.50;;;;;;5015219;28;20381;-72
2022/10/08 08:05:17;;;;;;;37.60;20.93;;;14.30;79.30;;;;;;5015406;28;20381;-72
2022/10/08 08:07:43;;;;;;;38.57;20.10;;;14.30;79.10;;;;;;5016483;28;20389;-71
2022/10/08 08:10:08;;;;;;;32.47;19.80;;;14.20;78.30;;;;;;5021785;28;20391;-72
2022/10/08 08:12:34;;;;;;;35.35;20.10;;;14.20;79.90;;;;;;5023150;28;20385;-72
2022/10/08 08:14:59;;;;;;;41.80;21.55;;;14.10;81.10;;;;;;5023643;28;20377;-72
2022/10/08 08:17:25;;;;;;;42.13;23.23;;;14.10;82.00;;;;;;5022438;28;20412;-71
2022/10/08 08:19:51;;;;;;;30.23;17.80;;;14.30;80.60;;;;;;5028426;28;20389;-73
2022/10/08 08:22:16;;;;;;;34.57;18.60;;;14.60;74.40;;;;;;5026098;28;20473;-73
2022/10/08 08:24:42;;;;;;;29.55;17.38;;;15.00;73.50;;;;;;5024048;28;20741;-72
2022/10/08 08:27:07;;;;;;;32.10;18.17;;;15.20;69.90;;;;;;5016721;28;20885;-73
2022/10/08 08:29:33;;;;;;;29.40;17.63;;;15.30;67.10;;;;;;5014758;28;20893;-72
2022/10/08 08:31:58;;;;;;;33.90;19.23;;;15.30;66.80;;;;;;5014228;28;20388;-72
2022/10/08 08:34:24;;;;;;;30.55;17.77;;;15.10;69.80;;;;;;5014980;28;20396;-72
2022/10/08 08:36:54;;;;;;;31.30;16.20;;;14.90;67.20;;;;;;5014039;28;20412;-73
2022/10/08 08:39:25;;;;;;;32.03;17.92;;;15.00;67.10;;;;;;5012390;28;20385;-73
2022/10/08 08:42:19;;;;;;;26.85;14.85;;;15.10;65.40;;;;;;5013031;28;20416;-73
2022/10/08 08:44:54;;;;;;;27.40;14.25;;;15.40;61.70;;;;;;4994806;28;20480;-72
2022/10/08 08:47:35;;;;;;;24.30;14.60;;;15.40;59.90;;;;;;5013227;28;20439;-72
2022/10/08 08:50:05;;;;;;;30.38;15.18;;;15.30;62.50;;;;;;5013135;28;20404;-73
2022/10/08 08:52:36;;;;;;;25.60;12.63;;;15.30;60.30;;;;;;5013232;28;20750;-73
2022/10/08 08:55:17;;;;;;;25.48;12.10;;;15.40;57.80;;;;;;5013684;28;20381;-73
2022/10/08 08:58:33;;;;;;;24.35;12.63;;;15.40;58.00;;;;;;5013999;28;20405;-72
2022/10/08 09:01:31;;;;;;;23.52;12.35;;;15.10;61.90;;;;;;4999959;28;20443;-73
2022/10/08 09:04:40;;;;;;;22.58;12.23;;;14.80;61.50;;;;;;5016505;28;20388;-72
2022/10/08 09:07:12;;;;;;;27.08;12.43;;;14.80;62.30;;;;;;5014131;28;20424;-73
2022/10/08 09:09:42;;;;;;;26.10;12.80;;;14.90;59.50;;;;;;5013610;28;20384;-71
2022/10/08 09:12:13;;;;;;;24.42;11.73;;;15.20;59.20;;;;;;5013529;28;20395;-73
2022/10/08 09:14:46;;;;;;;17.45;10.15;;;15.50;56.40;;;;;;5013841;28;20462;-72
2022/10/08 09:17:15;;;;;;;21.85;11.05;;;15.80;54.20;;;;;;5013308;28;20801;-71
2022/10/08 09:19:41;;;;;;;19.52;9.60;;;16.10;52.80;;;;;;5012889;28;20531;-72
2022/10/08 09:22:28;;;;;;;21.20;11.57;;;16.00;51.90;;;;;;5013418;28;20404;-73
2022/10/08 09:25:05;;;;;;;21.05;9.70;;;15.90;50.90;;;;;;5013129;28;20869;-72
2022/10/08 09:27:45;;;;;;;22.25;8.85;;;16.10;50.20;;;;;;5013625;28;20393;-72
2022/10/08 09:30:23;;;;;;;16.73;6.30;;;16.30;48.50;;;;;;5012650;28;20423;-71
2022/10/08 09:32:52;;;;;;;26.13;8.80;;;15.80;45.70;;;;;;5012842;28;20388;-72
2022/10/08 09:35:18;;;;;;;21.83;9.20;;;15.80;47.40;;;;;;5013606;28;20458;-73
2022/10/08 09:37:46;;;;;;;14.03;8.43;;;16.00;46.00;;;;;;5013235;28;20408;-73
2022/10/08 09:40:22;;;;;;;22.25;9.10;;;16.00;44.30;;;;;;5012644;28;22471;-73
2022/10/08 09:43:16;;;;;;;16.17;7.40;;;16.10;44.60;;;;;;5014791;28;20389;-74
2022/10/08 09:45:48;;;;;;;24.23;14.45;;;16.00;46.20;;;;;;5013809;28;20396;-72
2022/10/08 09:48:18;;;;;;;20.80;10.60;;;16.10;46.40;;;;;;5013113;28;20400;-73
2022/10/08 09:50:57;;;;;;;16.57;7.83;;;16.20;45.30;;;;;;5013076;22;20810;-71
2022/10/08 09:53:28;;;;;;;19.58;11.73;;;15.90;42.30;;;;;;4992325;28;20379;-72
2022/10/08 09:56:01;;;;;;;27.65;13.93;;;15.70;44.40;;;;;;4992927;28;20788;-72
2022/10/08 09:58:30;;;;;;;28.65;17.58;;;15.70;45.30;;;;;;4993221;28;20390;-71
2022/10/08 10:01:14;;;;;;;26.52;13.32;;;15.50;45.60;;;;;;4992694;28;20887;-71
2022/10/08 10:03:48;;;;;;;22.33;10.07;;;15.70;45.20;;;;;;4992676;28;20453;-71
2022/10/08 10:06:14;;;;;;;19.45;8.10;;;16.10;41.90;;;;;;4992807;28;20497;-72
2022/10/08 10:08:47;;;;;;;18.17;7.30;;;16.30;38.70;;;;;;4993032;28;20815;-70
2022/10/08 10:11:20;;;;;;;16.15;6.90;;;16.30;38.20;;;;;;4992249;28;20394;-72
2022/10/08 10:13:48;;;;;;;19.80;9.70;;;16.10;38.80;;;;;;4994298;28;20391;-72
2022/10/08 10:16:25;;;;;;;14.18;6.93;;;16.00;38.50;;;;;;4994139;28;20414;-72
2022/10/08 10:18:59;;;;;;;31.55;16.80;;;15.80;38.30;;;;;;4992557;28;20485;-72
2022/10/08 10:21:33;;;;;;;19.25;7.72;;;15.60;39.30;;;;;;4993039;28;20482;-72
2022/10/08 10:24:21;;;;;;;13.07;5.40;;;15.40;37.70;;;;;;4992753;28;20754;-71
2022/10/08 10:26:48;;;;;;;13.98;4.70;;;15.20;40.40;;;;;;4992616;28;20887;-72
2022/10/08 10:29:19;;;;;;;9.27;4.40;;;15.00;39.90;;;;;;4991108;28;20840;-72
2022/10/08 10:31:57;;;;;;;14.68;4.40;;;15.00;38.70;;;;;;4992605;28;20402;-72
2022/10/08 10:34:32;;;;;;;12.68;4.72;;;15.00;39.60;;;;;;4993097;28;20390;-72
2022/10/08 10:37:00;;;;;;;13.30;5.60;;;15.20;40.10;;;;;;4993566;28;20402;-72
2022/10/08 10:39:31;;;;;;;14.98;5.60;;;15.60;39.00;;;;;;4993993;28;20721;-70
2022/10/08 10:41:59;;;;;;;14.32;4.25;;;16.10;37.20;;;;;;4995274;28;20729;-72
2022/10/08 10:44:51;;;;;;;12.30;3.80;;;16.20;34.90;;;;;;4995403;28;20393;-70
2022/10/08 10:47:23;;;;;;;14.80;4.22;;;16.20;35.60;;;;;;4992676;28;20395;-72
2022/10/08 10:49:50;;;;;;;9.77;3.92;;;16.30;33.00;;;;;;4993302;28;20831;-72
2022/10/08 10:52:47;;;;;;;13.27;3.67;;;16.10;32.40;;;;;;4993001;28;20386;-71
2022/10/08 10:55:15;;;;;;;9.05;3.42;;;16.30;32.10;;;;;;4992281;28;20903;-72
2022/10/08 10:58:10;;;;;;;12.25;2.70;;;16.30;31.90;;;;;;4992039;28;20402;-71
2022/10/08 11:01:05;;;;;;;6.22;2.00;;;15.90;33.10;;;;;;4992241;28;20441;-72
2022/10/08 11:03:45;;;;;;;7.78;2.65;;;15.60;33.40;;;;;;4991734;28;20382;-72
2022/10/08 11:06:48;;;;;;;15.98;6.85;;;15.50;30.80;;;;;;4996529;28;20393;-72
2022/10/08 11:09:32;;;;;;;10.68;4.22;;;15.70;28.90;;;;;;4995992;28;20401;-72
2022/10/08 11:12:32;;;;;;;23.80;5.20;;;15.80;29.30;;;;;;4994767;28;20390;-70
2022/10/08 11:15:21;;;;;;;8.90;2.50;;;15.80;26.10;;;;;;4995880;28;20406;-71
2022/10/08 11:18:14;;;;;;;14.43;2.70;;;15.60;26.90;;;;;;4996676;28;20406;-71
2022/10/08 11:21:09;;;;;;;4.93;1.92;;;15.70;26.50;;;;;;4995990;28;20405;-72
2022/10/08 11:23:53;;;;;;;5.28;1.38;;;15.70;26.50;;;;;;4997570;28;20378;-70
2022/10/08 11:26:27;;;;;;;8.50;3.03;;;15.60;26.20;;;;;;5000536;28;20473;-73
2022/10/08 11:29:13;;;;;;;13.75;4.45;;;15.60;26.90;;;;;;4998214;28;20448;-72
2022/10/08 11:31:41;;;;;;;7.28;1.70;;;15.70;27.00;;;;;;4994889;28;20398;-72
2022/10/08 11:34:20;;;;;;;5.63;1.60;;;15.70;26.20;;;;;;4996164;28;20453;-72
2022/10/08 11:37:06;;;;;;;13.93;6.00;;;15.80;25.60;;;;;;4996044;28;20437;-73
2022/10/08 11:40:01;;;;;;;8.45;3.95;;;16.00;23.40;;;;;;4996264;28;20406;-71
2022/10/08 11:42:34;;;;;;;4.35;2.13;;;16.20;23.60;;;;;;4995875;28;20771;-71
2022/10/08 11:45:36;;;;;;;11.05;4.53;;;16.20;24.00;;;;;;4996164;28;20848;-72
2022/10/08 11:48:26;;;;;;;16.13;6.75;;;16.50;23.20;;;;;;4975198;28;20394;-71
2022/10/08 11:50:52;;;;;;;18.48;7.00;;;16.60;22.70;;;;;;4995711;28;20445;-71
2022/10/08 11:53:20;;;;;;;10.10;5.00;;;16.60;22.90;;;;;;4994758;28;20394;-73
2022/10/08 11:55:57;;;;;;;8.68;3.70;;;16.60;23.80;;;;;;4995240;28;20868;-72
2022/10/08 11:58:32;;;;;;;8.73;4.33;;;16.80;24.80;;;;;;4995325;28;20397;-72
2022/10/08 12:01:08;;;;;;;7.50;3.15;;;17.00;23.70;;;;;;4994772;28;20392;-72
2022/10/08 12:03:37;;;;;;;9.25;3.33;;;17.20;21.60;;;;;;4995183;28;20875;-73
2022/10/08 12:06:12;;;;;;;8.68;2.83;;;17.20;19.20;;;;;;4994430;28;20398;-72
2022/10/08 12:09:06;;;;;;;9.43;3.10;;;17.20;19.80;;;;;;4994994;28;20461;-72
2022/10/08 12:11:34;;;;;;;6.50;2.33;;;17.30;20.00;;;;;;4993818;28;20433;-72
2022/10/08 12:14:12;;;;;;;3.22;1.85;;;17.30;19.50;;;;;;4994958;28;20410;-71
2022/10/08 12:16:46;;;;;;;9.18;1.73;;;17.40;19.50;;;;;;4995051;28;20406;-72
2022/10/08 12:22:03;;;;;;;7.50;1.80;;;17.40;19.70;;;;;;4994904;28;20405;-72
2022/10/08 12:24:37;;;;;;;11.82;2.00;;;17.40;20.00;;;;;;4994540;28;20760;-72
2022/10/08 12:27:15;;;;;;;6.57;2.30;;;17.50;20.00;;;;;;4994763;28;20471;-72
2022/10/08 12:30:08;;;;;;;12.57;6.00;;;17.80;19.30;;;;;;4995277;28;20767;-72
2022/10/08 12:32:42;;;;;;;13.82;5.68;;;17.90;19.40;;;;;;4995444;28;20909;-71
2022/10/08 12:35:30;;;;;;;9.45;3.42;;;17.90;19.10;;;;;;4995263;28;20398;-72
2022/10/08 12:38:02;;;;;;;6.93;2.78;;;17.90;19.90;;;;;;4995831;28;20415;-72
2022/10/08 12:40:40;;;;;;;9.10;2.50;;;17.90;18.60;;;;;;4994224;28;20457;-72
2022/10/08 12:43:30;;;;;;;5.22;1.70;;;17.70;19.00;;;;;;4995333;28;20448;-72
2022/10/08 12:46:02;;;;;;;11.85;4.22;;;17.50;20.00;;;;;;4996544;28;20393;-72
2022/10/08 12:48:44;;;;;;;19.75;8.95;;;17.60;19.70;;;;;;4994723;28;20409;-73
2022/10/08 12:51:18;;;;;;;6.50;2.47;;;17.80;19.20;;;;;;4997434;28;20425;-73
2022/10/08 12:53:45;;;;;;;13.55;2.60;;;17.40;19.80;;;;;;4994697;28;20440;-72
2022/10/08 12:56:27;;;;;;;7.28;2.40;;;17.10;21.80;;;;;;4995025;28;20410;-71
2022/10/08 12:58:55;;;;;;;7.53;2.33;;;17.00;21.90;;;;;;5010096;28;20472;-71
2022/10/08 13:01:22;;;;;;;8.90;1.88;;;16.90;23.30;;;;;;4990482;28;20394;-72
2022/10/08 13:04:06;;;;;;;9.32;1.98;;;16.70;24.20;;;;;;4993436;28;20489;-70
2022/10/08 13:06:32;;;;;;;9.93;2.03;;;16.20;25.40;;;;;;4994451;28;20557;-71